createdAt,value
2023-03-06T00:00:07.452Z,74.34
2023-03-06T00:02:33.778Z,74.49
2023-03-06T00:05:00.144Z,74.71
2023-03-06T00:07:26.466Z,74.78
2023-03-06T00:09:52.870Z,74.27
2023-03-06T00:12:19.271Z,74.58
2023-03-06T00:14:45.732Z,74.76
2023-03-06T00:17:12.096Z,74.33
2023-03-06T00:19:38.486Z,74.89
2023-03-06T00:22:04.899Z,74.74
2023-03-06T00:24:31.266Z,75.25
2023-03-06T00:26:57.744Z,75.15
2023-03-06T00:29:24.155Z,74.67
2023-03-06T00:31:50.574Z,74.61
2023-03-06T00:34:17.065Z,74.62
2023-03-06T00:36:43.473Z,74.89
2023-03-06T00:39:09.846Z,74.62
2023-03-06T00:41:36.359Z,75.06
2023-03-06T00:44:02.728Z,75.09
2023-03-06T00:46:29.086Z,75.06
2023-03-06T00:48:55.537Z,74.97
2023-03-06T00:51:21.953Z,75.34
2023-03-06T00:53:48.539Z,75.34
2023-03-06T00:56:14.963Z,75.69
2023-03-06T00:58:41.687Z,75.91
2023-03-06T01:01:08.421Z,76.58
2023-03-06T01:03:34.880Z,76.35
2023-03-06T01:06:01.301Z,76.13
2023-03-06T01:08:27.742Z,76.58
2023-03-06T01:10:54.195Z,76.56
2023-03-06T01:13:21.788Z,76.46
2023-03-06T01:15:48.208Z,76.57
2023-03-06T01:18:15.303Z,76.53
2023-03-06T01:20:42.062Z,76.74
2023-03-06T01:23:08.490Z,76.72
2023-03-06T01:25:34.911Z,76.59
2023-03-06T01:28:01.391Z,76.37
2023-03-06T01:30:27.839Z,76.98
2023-03-06T01:32:54.230Z,76.99
2023-03-06T01:35:20.621Z,76.52
2023-03-06T01:37:47.053Z,76.75
2023-03-06T01:40:14.199Z,77.25
2023-03-06T01:42:41.695Z,76.79
2023-03-06T01:45:28.359Z,77.44
2023-03-06T01:47:54.757Z,77.32
2023-03-06T01:50:21.219Z,77.61
2023-03-06T01:52:58.585Z,77.72
2023-03-06T01:55:29.460Z,77.91
2023-03-06T01:58:00.608Z,77.64
2023-03-06T02:00:28.944Z,77.59
2023-03-06T02:03:13.066Z,77.63
2023-03-06T02:05:41.285Z,77.34
2023-03-06T02:08:09.584Z,77.29
2023-03-06T02:10:36.208Z,77.11
2023-03-06T02:13:03.219Z,77.58
2023-03-06T02:15:30.619Z,77.57
2023-03-06T02:17:57.141Z,77.05
2023-03-06T02:21:08.615Z,77.43
2023-03-06T02:24:01.798Z,77.22
2023-03-06T02:26:29.630Z,77.27
2023-03-06T02:28:58.391Z,77.80
2023-03-06T02:31:33.629Z,77.40
2023-03-06T02:34:16.590Z,77.60
2023-03-06T02:36:47.587Z,77.99
2023-03-06T02:39:15.472Z,77.93
2023-03-06T02:41:41.934Z,77.06
2023-03-06T02:44:08.414Z,77.37
2023-03-06T02:46:34.831Z,77.97
2023-03-06T02:49:01.294Z,78.41
2023-03-06T02:51:27.786Z,78.58
2023-03-06T02:53:54.270Z,78.38
2023-03-06T02:56:20.701Z,78.73
2023-03-06T02:58:47.415Z,78.55
2023-03-06T03:01:14.045Z,78.85
2023-03-06T03:03:40.625Z,78.68
2023-03-06T03:06:08.002Z,79.21
2023-03-06T03:08:34.968Z,79.26
2023-03-06T03:11:01.861Z,78.97
2023-03-06T03:13:28.197Z,79.19
2023-03-06T03:15:59.656Z,79.33
2023-03-06T03:18:26.071Z,79.91
2023-03-06T03:20:52.453Z,79.99
2023-03-06T03:23:18.853Z,80.10
2023-03-06T03:25:45.317Z,80.33
2023-03-06T03:28:11.733Z,80.15
2023-03-06T03:30:40.029Z,80.06
2023-03-06T03:33:06.499Z,80.11
2023-03-06T03:35:33.299Z,79.95
2023-03-06T03:38:00.096Z,80.93
2023-03-06T03:40:27.015Z,80.29
2023-03-06T03:42:53.486Z,80.82
2023-03-06T03:45:20.154Z,80.98
2023-03-06T03:47:46.751Z,80.67
2023-03-06T03:50:13.088Z,81.01
2023-03-06T03:52:39.530Z,80.72
2023-03-06T03:55:06.471Z,80.53
2023-03-06T03:57:32.876Z,80.73
2023-03-06T03:59:59.268Z,80.55
2023-03-06T04:02:25.669Z,80.47
2023-03-06T04:04:52.385Z,80.53
2023-03-06T04:07:18.864Z,81.25
2023-03-06T04:09:45.295Z,81.08
2023-03-06T04:12:11.685Z,80.89
2023-03-06T04:14:38.073Z,81.21
2023-03-06T04:17:04.503Z,81.34
2023-03-06T04:19:30.918Z,81.44
2023-03-06T04:21:57.356Z,81.28
2023-03-06T04:24:23.697Z,81.69
2023-03-06T04:26:50.218Z,81.49
2023-03-06T04:29:16.854Z,81.96
2023-03-06T04:31:43.274Z,82.11
2023-03-06T04:34:09.665Z,81.35
2023-03-06T04:36:36.533Z,82.13
2023-03-06T04:39:03.314Z,81.85
2023-03-06T04:41:30.575Z,82.23
2023-03-06T04:43:57.010Z,81.89
2023-03-06T04:46:23.496Z,82.07
2023-03-06T04:48:49.902Z,81.79
2023-03-06T04:51:16.586Z,82.25
2023-03-06T04:53:42.986Z,82.30
2023-03-06T04:56:09.617Z,82.17
2023-03-06T04:58:36.220Z,82.97
2023-03-06T05:01:03.611Z,82.52
2023-03-06T05:03:30.263Z,83.19
2023-03-06T05:05:56.640Z,83.04
2023-03-06T05:08:23.847Z,82.92
2023-03-06T05:10:56.412Z,83.44
2023-03-06T05:13:23.330Z,83.75
2023-03-06T05:15:49.782Z,83.38
2023-03-06T05:18:16.777Z,83.42
2023-03-06T05:20:43.653Z,83.27
2023-03-06T05:23:10.034Z,83.90
2023-03-06T05:25:39.241Z,83.58
2023-03-06T05:28:06.399Z,83.76
2023-03-06T05:30:32.889Z,83.88
2023-03-06T05:33:00.218Z,83.84
2023-03-06T05:35:26.582Z,84.69
2023-03-06T05:37:53.202Z,83.83
2023-03-06T05:40:19.904Z,84.02
2023-03-06T05:42:46.265Z,84.15
2023-03-06T05:45:12.728Z,84.09
2023-03-06T05:47:39.139Z,84.15
2023-03-06T05:50:07.957Z,84.57
2023-03-06T05:52:34.353Z,84.44
2023-03-06T05:55:00.695Z,84.20
2023-03-06T05:57:27.098Z,84.61
2023-03-06T05:59:53.746Z,84.91
2023-03-06T06:02:20.183Z,84.42
2023-03-06T06:04:46.939Z,84.34
2023-03-06T06:07:15.257Z,84.96
2023-03-06T06:09:43.372Z,84.22
2023-03-06T06:12:09.811Z,85.01
2023-03-06T06:14:36.175Z,84.35
2023-03-06T06:17:02.555Z,84.48
2023-03-06T06:19:30.486Z,84.88
2023-03-06T06:21:57.675Z,84.88
2023-03-06T06:24:26.034Z,84.87
2023-03-06T06:26:54.543Z,84.88
2023-03-06T06:29:22.121Z,84.79
2023-03-06T06:31:48.943Z,84.75
2023-03-06T06:34:15.431Z,84.50
2023-03-06T06:36:41.915Z,84.29
2023-03-06T06:39:10.720Z,84.71
2023-03-06T06:41:56.913Z,84.27
2023-03-06T06:44:23.509Z,84.29
2023-03-06T06:47:21.348Z,84.01
2023-03-06T06:49:37.387Z,84.56
2023-03-06T06:52:05.155Z,83.72
2023-03-06T06:54:33.376Z,84.12
2023-03-06T06:57:00.288Z,83.91
2023-03-06T06:59:26.858Z,83.85
2023-03-06T07:01:53.426Z,83.69
2023-03-06T07:04:20.119Z,83.95
2023-03-06T07:06:46.719Z,83.74
2023-03-06T07:09:13.736Z,83.72
2023-03-06T07:11:41.109Z,84.10
2023-03-06T07:14:08.119Z,84.00
2023-03-06T07:16:34.875Z,84.17
2023-03-06T07:19:01.302Z,84.11
2023-03-06T07:21:27.783Z,83.68
2023-03-06T07:23:57.181Z,83.78
2023-03-06T07:26:24.874Z,84.21
2023-03-06T07:28:53.585Z,83.98
2023-03-06T07:31:22.704Z,83.78
2023-03-06T07:33:53.329Z,83.98
2023-03-06T07:36:20.661Z,83.83
2023-03-06T07:38:47.404Z,83.41
2023-03-06T07:41:16.573Z,83.02
2023-03-06T07:43:44.326Z,83.15
2023-03-06T07:46:11.475Z,83.17
2023-03-06T07:48:38.323Z,82.73
2023-03-06T07:51:08.109Z,82.55
2023-03-06T07:53:35.001Z,82.55
2023-03-06T07:56:08.515Z,82.59
2023-03-06T07:58:40.087Z,81.66
2023-03-06T08:01:09.161Z,81.73
2023-03-06T08:03:35.887Z,81.59
2023-03-06T08:06:08.895Z,81.23
2023-03-06T08:08:37.322Z,81.36
2023-03-06T08:11:03.800Z,81.56
2023-03-06T08:13:30.187Z,80.55
2023-03-06T08:15:56.763Z,80.15
2023-03-06T08:18:23.347Z,80.41
2023-03-06T08:20:49.768Z,80.32
2023-03-06T08:23:16.202Z,79.73
2023-03-06T08:25:42.643Z,79.78
2023-03-06T08:28:09.014Z,79.18
2023-03-06T08:30:35.426Z,78.88
2023-03-06T08:33:02.083Z,78.31
2023-03-06T08:35:28.534Z,77.35
2023-03-06T08:37:55.156Z,77.64
2023-03-06T08:40:23.133Z,77.10
2023-03-06T08:42:49.611Z,77.35
2023-03-06T08:45:16.020Z,76.80
2023-03-06T08:47:42.358Z,76.97
2023-03-06T08:50:09.468Z,76.89
2023-03-06T08:52:35.857Z,76.57
2023-03-06T08:55:03.533Z,76.14
2023-03-06T08:57:30.518Z,76.33
2023-03-06T08:59:57.163Z,76.08
2023-03-06T09:02:23.542Z,75.80
2023-03-06T09:04:49.969Z,75.54
2023-03-06T09:07:16.360Z,75.25
2023-03-06T09:09:42.856Z,75.45
2023-03-06T09:12:09.209Z,74.69
2023-03-06T09:14:35.525Z,73.74
2023-03-06T09:17:01.920Z,73.57
2023-03-06T09:19:28.247Z,72.80
2023-03-06T09:21:54.646Z,73.60
2023-03-06T09:24:21.042Z,73.25
2023-03-06T09:26:49.356Z,72.71
2023-03-06T09:29:17.408Z,72.72
2023-03-06T09:31:44.930Z,72.93
2023-03-06T09:34:11.262Z,72.28
2023-03-06T09:36:53.434Z,72.12
2023-03-06T09:39:21.581Z,72.31
2023-03-06T09:41:49.528Z,72.78
2023-03-06T09:44:31.930Z,72.68
2023-03-06T09:47:20.874Z,70.29
2023-03-06T09:49:54.709Z,70.81
2023-03-06T09:52:33.211Z,70.26
2023-03-06T09:55:09.061Z,70.46
2023-03-06T09:57:38.090Z,70.60
2023-03-06T10:00:16.676Z,70.59
2023-03-06T10:02:53.267Z,70.65
2023-03-06T10:06:13.516Z,69.99
2023-03-06T10:09:01.492Z,69.86
2023-03-06T10:11:39.058Z,69.09
2023-03-06T10:14:27.781Z,69.50
2023-03-06T10:16:54.868Z,68.74
2023-03-06T10:19:21.990Z,67.20
2023-03-06T10:21:57.457Z,65.75
2023-03-06T10:24:40.862Z,67.27
2023-03-06T10:27:21.415Z,66.60
2023-03-06T10:30:03.621Z,66.89
2023-03-06T10:32:51.057Z,64.88
2023-03-06T10:35:44.202Z,63.99
2023-03-06T10:38:37.671Z,63.27
2023-03-06T10:41:08.538Z,63.44
2023-03-06T10:43:36.512Z,63.66
2023-03-06T10:46:03.840Z,63.31
2023-03-06T10:48:32.774Z,63.04
2023-03-06T10:51:31.446Z,63.06
2023-03-06T10:54:01.222Z,62.36
2023-03-06T10:56:41.634Z,62.28
2023-03-06T10:59:17.077Z,63.08
2023-03-06T11:01:52.346Z,63.83
2023-03-06T11:04:34.406Z,63.58
2023-03-06T11:07:06.905Z,62.86
2023-03-06T11:09:33.844Z,63.04
2023-03-06T11:12:22.497Z,63.23
2023-03-06T11:15:11.727Z,62.98
2023-03-06T11:18:24.278Z,63.39
2023-03-06T11:20:53.411Z,63.20
2023-03-06T11:23:37.271Z,63.11
2023-03-06T11:26:15.823Z,62.78
2023-03-06T11:29:19.632Z,61.78
2023-03-06T11:32:10.855Z,61.66
2023-03-06T11:34:44.137Z,61.25
2023-03-06T11:37:22.402Z,61.33
2023-03-06T11:39:59.424Z,61.92
2023-03-06T11:42:43.365Z,61.46
2023-03-06T11:45:33.503Z,62.01
2023-03-06T11:48:15.885Z,62.08
2023-03-06T11:50:49.262Z,62.66
2023-03-06T11:53:18.973Z,63.12
2023-03-06T11:56:03.989Z,63.25
2023-03-06T11:58:52.168Z,63.18
2023-03-06T12:01:36.975Z,62.93
2023-03-06T12:04:18.954Z,62.74
2023-03-06T12:07:03.253Z,64.15
2023-03-06T12:10:23.304Z,64.17
2023-03-06T12:13:02.112Z,64.37
2023-03-06T12:15:54.429Z,63.79
2023-03-06T12:18:45.311Z,65.05
2023-03-06T12:21:30.163Z,64.20
2023-03-06T12:24:23.219Z,64.74
2023-03-06T12:27:17.907Z,65.07
2023-03-06T12:30:43.038Z,65.14
2023-03-06T12:33:09.391Z,65.78
2023-03-06T12:36:12.438Z,66.14
2023-03-06T12:39:15.610Z,66.03
2023-03-06T12:41:56.613Z,66.14
2023-03-06T12:44:49.754Z,66.60
2023-03-06T12:47:20.007Z,67.01
2023-03-06T12:49:53.087Z,66.53
2023-03-06T12:52:40.442Z,66.93
2023-03-06T12:55:07.862Z,66.96
2023-03-06T12:57:34.302Z,67.29
2023-03-06T13:00:00.732Z,67.43
2023-03-06T13:02:45.369Z,67.91
2023-03-06T13:05:35.906Z,67.96
2023-03-06T13:08:23.564Z,67.59
2023-03-06T13:11:22.722Z,67.56
2023-03-06T13:13:49.390Z,67.87
2023-03-06T13:16:15.893Z,67.61
2023-03-06T13:18:42.268Z,67.72
2023-03-06T13:21:44.381Z,67.60
2023-03-06T13:24:35.591Z,67.92
2023-03-06T13:27:12.645Z,67.85
2023-03-06T13:29:38.933Z,67.86
2023-03-06T13:32:14.354Z,67.92
2023-03-06T13:34:41.910Z,67.91
2023-03-06T13:37:17.209Z,67.71
2023-03-06T13:39:55.820Z,67.57
2023-03-06T13:42:56.396Z,67.49
2023-03-06T13:45:29.850Z,67.55
2023-03-06T13:48:24.501Z,67.66
2023-03-06T13:50:47.433Z,67.52
2023-03-06T13:53:51.600Z,67.81
2023-03-06T13:56:33.830Z,67.76
2023-03-06T13:59:30.010Z,68.13
2023-03-06T14:02:28.909Z,68.05
2023-03-06T14:05:00.181Z,68.18
2023-03-06T14:07:40.389Z,68.44
2023-03-06T14:10:22.801Z,68.25
2023-03-06T14:12:49.146Z,68.31
2023-03-06T14:15:22.441Z,68.53
2023-03-06T14:18:07.601Z,68.21
2023-03-06T14:20:42.332Z,67.32
2023-03-06T14:23:20.917Z,67.33
2023-03-06T14:25:51.883Z,66.82
2023-03-06T14:28:26.287Z,66.90
2023-03-06T14:30:55.536Z,66.65
2023-03-06T14:33:31.140Z,66.90
2023-03-06T14:36:03.538Z,67.04
2023-03-06T14:38:35.474Z,66.82
2023-03-06T14:41:04.797Z,67.36
2023-03-06T14:43:32.269Z,67.40
2023-03-06T14:46:01.311Z,67.42
2023-03-06T14:48:42.517Z,67.78
2023-03-06T14:51:21.160Z,65.33
2023-03-06T14:53:53.729Z,66.30
2023-03-06T14:56:23.211Z,66.66
2023-03-06T14:58:52.586Z,67.22
2023-03-06T15:01:43.348Z,68.55
2023-03-06T15:04:31.752Z,67.06
2023-03-06T15:06:59.265Z,66.88
2023-03-06T15:09:30.118Z,67.70
2023-03-06T15:11:58.463Z,68.53
2023-03-06T15:14:33.623Z,67.31
2023-03-06T15:17:18.484Z,67.04
2023-03-06T15:19:47.115Z,66.45
2023-03-06T15:22:41.561Z,65.88
2023-03-06T15:25:30.491Z,65.67
2023-03-06T15:28:20.331Z,65.39
2023-03-06T15:31:01.554Z,66.07
2023-03-06T15:33:28.003Z,66.23
2023-03-06T15:36:27.501Z,67.20
2023-03-06T15:38:56.424Z,66.22
2023-03-06T15:41:37.326Z,66.14
2023-03-06T15:44:14.909Z,64.73
2023-03-06T15:46:41.768Z,64.36
2023-03-06T15:49:16.997Z,63.94
2023-03-06T15:51:43.479Z,63.55
2023-03-06T15:54:12.601Z,62.92
2023-03-06T15:56:41.653Z,63.19
2023-03-06T15:59:15.427Z,63.49
2023-03-06T16:01:43.279Z,63.67
2023-03-06T16:04:09.759Z,63.86
2023-03-06T16:06:39.218Z,64.52
2023-03-06T16:09:05.809Z,64.75
2023-03-06T16:11:43.225Z,65.70
2023-03-06T16:14:23.721Z,66.77
2023-03-06T16:16:53.849Z,68.82
2023-03-06T16:19:27.800Z,69.44
2023-03-06T16:21:56.261Z,70.51
2023-03-06T16:24:22.651Z,71.40
2023-03-06T16:26:51.121Z,72.38
2023-03-06T16:29:19.382Z,72.92
2023-03-06T16:31:45.907Z,73.67
2023-03-06T16:34:12.666Z,74.35
2023-03-06T16:36:39.326Z,74.86
2023-03-06T16:39:06.370Z,75.30
2023-03-06T16:41:32.711Z,76.04
2023-03-06T16:43:59.053Z,76.43
2023-03-06T16:46:25.576Z,76.63
2023-03-06T16:48:52.833Z,77.35
2023-03-06T16:51:22.591Z,77.24
2023-03-06T16:53:50.827Z,77.71
2023-03-06T16:56:19.380Z,77.52
2023-03-06T16:58:47.037Z,77.85
2023-03-06T17:01:19.132Z,78.24
2023-03-06T17:03:45.952Z,78.35
2023-03-06T17:06:23.107Z,78.55
2023-03-06T17:08:50.803Z,78.80
2023-03-06T17:11:17.928Z,78.46
2023-03-06T17:13:44.339Z,78.83
2023-03-06T17:16:16.248Z,78.91
2023-03-06T17:18:44.333Z,78.83
2023-03-06T17:21:11.732Z,78.90
2023-03-06T17:23:38.260Z,78.83
2023-03-06T17:26:08.349Z,78.80
2023-03-06T17:28:36.353Z,78.68
2023-03-06T17:31:10.334Z,78.62
2023-03-06T17:33:36.738Z,78.94
2023-03-06T17:36:03.446Z,79.06
2023-03-06T17:38:29.843Z,79.00
2023-03-06T17:40:56.466Z,79.08
2023-03-06T17:43:22.906Z,79.00
2023-03-06T17:45:49.301Z,78.89
2023-03-06T17:48:15.795Z,78.77
2023-03-06T17:50:42.197Z,78.86
2023-03-06T17:53:09.080Z,78.82
2023-03-06T17:55:38.249Z,78.72
2023-03-06T17:58:04.628Z,78.25
2023-03-06T18:00:31.011Z,78.06
2023-03-06T18:02:57.363Z,77.63
2023-03-06T18:05:23.731Z,77.46
2023-03-06T18:07:50.173Z,77.53
2023-03-06T18:10:16.925Z,77.39
2023-03-06T18:12:43.384Z,77.59
2023-03-06T18:15:10.144Z,77.38
2023-03-06T18:17:36.718Z,77.51
2023-03-06T18:20:03.298Z,78.04
2023-03-06T18:22:29.692Z,77.72
2023-03-06T18:24:56.260Z,78.25
2023-03-06T18:27:23.003Z,78.38
2023-03-06T18:29:49.504Z,78.09
2023-03-06T18:32:15.918Z,78.46
2023-03-06T18:34:42.425Z,78.73
2023-03-06T18:37:08.744Z,78.95
2023-03-06T18:39:35.176Z,79.24
2023-03-06T18:42:01.801Z,79.13
2023-03-06T18:44:28.204Z,79.40
2023-03-06T18:46:54.517Z,79.52
2023-03-06T18:49:21.013Z,80.17
2023-03-06T18:51:49.937Z,80.14
2023-03-06T18:54:16.591Z,79.65
2023-03-06T18:56:44.587Z,80.43
2023-03-06T18:59:16.107Z,80.41
2023-03-06T19:01:45.105Z,80.25
2023-03-06T19:04:12.264Z,80.00
2023-03-06T19:06:39.922Z,80.24
2023-03-06T19:09:06.717Z,80.05
2023-03-06T19:11:33.699Z,79.95
2023-03-06T19:14:00.976Z,80.32
2023-03-06T19:16:29.485Z,80.43
2023-03-06T19:18:57.252Z,80.47
2023-03-06T19:21:26.078Z,80.92
2023-03-06T19:23:53.221Z,80.49
2023-03-06T19:26:20.002Z,80.81
2023-03-06T19:28:47.645Z,80.91
2023-03-06T19:31:24.757Z,81.00
2023-03-06T19:33:53.089Z,81.16
2023-03-06T19:36:20.214Z,81.40
2023-03-06T19:38:52.471Z,80.94
2023-03-06T19:41:18.868Z,80.88
2023-03-06T19:43:50.939Z,81.21
2023-03-06T19:46:17.600Z,81.39
2023-03-06T19:48:43.973Z,81.50
2023-03-06T19:51:10.662Z,81.29
2023-03-06T19:53:38.678Z,81.50
2023-03-06T19:56:08.090Z,81.53
2023-03-06T19:58:34.797Z,81.86
2023-03-06T20:01:09.859Z,81.80
2023-03-06T20:03:36.489Z,81.72
2023-03-06T20:06:06.596Z,81.92
2023-03-06T20:08:33.124Z,82.21
2023-03-06T20:10:59.547Z,82.40
2023-03-06T20:13:25.990Z,82.48
2023-03-06T20:15:52.475Z,82.75
2023-03-06T20:18:18.982Z,82.42
2023-03-06T20:20:45.381Z,82.70
2023-03-06T20:23:11.816Z,83.13
2023-03-06T20:25:38.306Z,83.03
2023-03-06T20:28:05.204Z,83.13
2023-03-06T20:30:38.183Z,83.24
2023-03-06T20:33:05.288Z,83.41
2023-03-06T20:35:31.821Z,83.51
2023-03-06T20:37:58.975Z,83.83
2023-03-06T20:40:25.414Z,83.69
2023-03-06T20:42:51.881Z,84.04
2023-03-06T20:45:18.310Z,84.25
2023-03-06T20:47:47.153Z,84.39
2023-03-06T20:50:15.334Z,84.63
2023-03-06T20:52:41.937Z,84.65
2023-03-06T20:55:08.815Z,85.00
2023-03-06T20:57:35.227Z,84.93
2023-03-06T21:00:01.609Z,85.14
2023-03-06T21:02:27.958Z,85.04
2023-03-06T21:04:54.382Z,85.28
2023-03-06T21:07:20.747Z,85.24
2023-03-06T21:09:47.648Z,85.21
2023-03-06T21:12:14.016Z,85.70
2023-03-06T21:14:40.435Z,86.00
2023-03-06T21:17:06.795Z,85.86
2023-03-06T21:19:33.146Z,86.04
2023-03-06T21:21:59.484Z,86.38
2023-03-06T21:24:25.904Z,85.97
2023-03-06T21:26:52.304Z,86.42
2023-03-06T21:29:18.682Z,86.51
2023-03-06T21:31:45.235Z,86.43
2023-03-06T21:34:11.965Z,87.04
2023-03-06T21:36:38.393Z,87.06
2023-03-06T21:39:08.120Z,87.01
2023-03-06T21:41:34.654Z,87.33
2023-03-06T21:44:03.439Z,87.32
2023-03-06T21:46:30.278Z,87.60
2023-03-06T21:48:57.335Z,87.39
2023-03-06T21:51:25.771Z,88.03
2023-03-06T21:53:53.010Z,88.14
2023-03-06T21:56:22.132Z,88.06
2023-03-06T21:58:48.641Z,88.20
2023-03-06T22:01:23.883Z,88.71
2023-03-06T22:03:50.498Z,88.64
2023-03-06T22:06:23.156Z,88.65
2023-03-06T22:08:49.951Z,88.56
2023-03-06T22:11:19.103Z,88.88
2023-03-06T22:13:46.632Z,88.51
2023-03-06T22:16:13.464Z,88.79
2023-03-06T22:18:40.335Z,88.78
2023-03-06T22:21:08.343Z,88.74
2023-03-06T22:23:34.817Z,88.82
2023-03-06T22:26:06.482Z,88.56
2023-03-06T22:28:32.996Z,89.07
2023-03-06T22:31:12.298Z,88.51
2023-03-06T22:33:38.957Z,88.33
2023-03-06T22:36:08.524Z,88.65
2023-03-06T22:38:36.796Z,88.27
2023-03-06T22:41:04.289Z,88.43
2023-03-06T22:43:31.246Z,88.34
2023-03-06T22:46:10.400Z,88.38
2023-03-06T22:48:37.128Z,88.17
2023-03-06T22:51:09.382Z,87.96
2023-03-06T22:53:36.480Z,88.26
2023-03-06T22:56:04.872Z,88.03
2023-03-06T22:58:35.476Z,87.96
2023-03-06T23:01:10.608Z,88.10
2023-03-06T23:03:38.690Z,88.00
2023-03-06T23:06:07.878Z,88.10
2023-03-06T23:08:34.432Z,87.87
2023-03-06T23:11:01.155Z,88.14
2023-03-06T23:13:27.563Z,87.71
2023-03-06T23:15:53.973Z,87.99
2023-03-06T23:18:20.391Z,87.65
2023-03-06T23:20:46.849Z,87.84
2023-03-06T23:23:13.310Z,87.54
2023-03-06T23:25:39.762Z,87.70
2023-03-06T23:28:06.486Z,87.54
2023-03-06T23:30:33.034Z,87.50
2023-03-06T23:32:59.373Z,87.73
2023-03-06T23:35:25.990Z,87.77
2023-03-06T23:37:52.392Z,87.49
2023-03-06T23:40:18.814Z,87.82
2023-03-06T23:42:45.190Z,87.76
2023-03-06T23:45:11.750Z,87.77
2023-03-06T23:47:38.149Z,87.87
2023-03-06T23:50:04.792Z,88.13
2023-03-06T23:52:31.187Z,88.42
2023-03-06T23:54:57.577Z,88.35
2023-03-06T23:57:23.984Z,88.58
2023-03-06T23:59:50.307Z,88.73
